sensor_id;sensor_type;location;lat;lon;timestamp;temperature;humidity
13389;DHT22;6764;53.250;10.410;2023-04-25T00:02:25;9.40;99.90
13389;DHT22;6764;53.250;10.410;2023-04-25T00:04:51;9.40;99.90
13389;DHT22;6764;53.250;10.410;2023-04-25T00:07:17;9.40;99.90
13389;DHT22;6764;53.250;10.410;2023-04-25T00:09:43;9.40;99.90
13389;DHT22;6764;53.250;10.410;2023-04-25T00:12:08;9.40;99.90
13389;DHT22;6764;53.250;10.410;2023-04-25T00:14:34;9.50;99.90
13389;DHT22;6764;53.250;10.410;2023-04-25T00:17:01;9.50;99.90
13389;DHT22;6764;53.250;10.410;2023-04-25T00:19:26;9.50;99.90
13389;DHT22;6764;53.250;10.410;2023-04-25T00:21:54;9.50;99.90
13389;DHT22;6764;53.250;10.410;2023-04-25T00:24:20;9.60;99.90
13389;DHT22;6764;53.250;10.410;2023-04-25T00:26:45;9.60;99.90
13389;DHT22;6764;53.250;10.410;2023-04-25T00:29:11;9.60;99.90
13389;DHT22;6764;53.250;10.410;2023-04-25T00:31:37;9.70;99.90
13389;DHT22;6764;53.250;10.410;2023-04-25T00:34:02;9.60;99.90
13389;DHT22;6764;53.250;10.410;2023-04-25T00:36:28;9.60;99.90
13389;DHT22;6764;53.250;10.410;2023-04-25T00:38:54;9.60;99.90
13389;DHT22;6764;53.250;10.410;2023-04-25T00:41:21;9.60;99.90
13389;DHT22;6764;53.250;10.410;2023-04-25T00:43:48;9.60;99.90
13389;DHT22;6764;53.250;10.410;2023-04-25T00:46:14;9.50;99.90
13389;DHT22;6764;53.250;10.410;2023-04-25T00:48:39;9.50;99.90
13389;DHT22;6764;53.250;10.410;2023-04-25T00:51:05;9.50;99.90
13389;DHT22;6764;53.250;10.410;2023-04-25T00:53:31;9.40;99.90
13389;DHT22;6764;53.250;10.410;2023-04-25T00:55:58;9.30;99.90
13389;DHT22;6764;53.250;10.410;2023-04-25T00:58:24;9.30;99.90
13389;DHT22;6764;53.250;10.410;2023-04-25T01:00:51;9.30;99.90
13389;DHT22;6764;53.250;10.410;2023-04-25T01:03:20;9.40;99.90
13389;DHT22;6764;53.250;10.410;2023-04-25T01:05:46;9.40;99.90
13389;DHT22;6764;53.250;10.410;2023-04-25T01:08:13;9.40;99.90
13389;DHT22;6764;53.250;10.410;2023-04-25T01:10:39;9.40;99.90
13389;DHT22;6764;53.250;10.410;2023-04-25T01:13:04;9.30;99.90
13389;DHT22;6764;53.250;10.410;2023-04-25T01:15:30;9.40;99.90
13389;DHT22;6764;53.250;10.410;2023-04-25T01:17:57;9.50;99.90
13389;DHT22;6764;53.250;10.410;2023-04-25T01:20:24;9.60;99.90
13389;DHT22;6764;53.250;10.410;2023-04-25T01:22:51;9.70;99.90
13389;DHT22;6764;53.250;10.410;2023-04-25T01:25:18;9.70;99.90
13389;DHT22;6764;53.250;10.410;2023-04-25T01:27:44;9.80;99.90
13389;DHT22;6764;53.250;10.410;2023-04-25T01:33:19;9.60;99.90
13389;DHT22;6764;53.250;10.410;2023-04-25T01:35:46;9.60;99.90
13389;DHT22;6764;53.250;10.410;2023-04-25T01:38:12;9.50;99.90
13389;DHT22;6764;53.250;10.410;2023-04-25T01:40:39;9.50;99.90
13389;DHT22;6764;53.250;10.410;2023-04-25T01:43:06;9.50;99.90
13389;DHT22;6764;53.250;10.410;2023-04-25T01:45:31;9.40;99.90
13389;DHT22;6764;53.250;10.410;2023-04-25T01:47:58;9.40;99.90
13389;DHT22;6764;53.250;10.410;2023-04-25T01:50:25;9.40;99.90
13389;DHT22;6764;53.250;10.410;2023-04-25T01:52:50;9.40;99.90
13389;DHT22;6764;53.250;10.410;2023-04-25T01:55:16;9.40;99.90
13389;DHT22;6764;53.250;10.410;2023-04-25T01:57:42;9.40;99.90
13389;DHT22;6764;53.250;10.410;2023-04-25T02:00:08;9.40;99.90
13389;DHT22;6764;53.250;10.410;2023-04-25T02:02:35;9.30;99.90
13389;DHT22;6764;53.250;10.410;2023-04-25T02:05:01;9.30;99.90
13389;DHT22;6764;53.250;10.410;2023-04-25T02:07:26;9.30;99.90
13389;DHT22;6764;53.250;10.410;2023-04-25T02:13:14;9.30;99.90
13389;DHT22;6764;53.250;10.410;2023-04-25T02:15:40;9.20;99.90
13389;DHT22;6764;53.250;10.410;2023-04-25T02:18:06;9.30;99.90
13389;DHT22;6764;53.250;10.410;2023-04-25T02:20:32;9.20;99.90
13389;DHT22;6764;53.250;10.410;2023-04-25T02:22:57;9.20;99.90
13389;DHT22;6764;53.250;10.410;2023-04-25T02:25:23;9.30;99.90
13389;DHT22;6764;53.250;10.410;2023-04-25T02:27:49;9.20;99.90
13389;DHT22;6764;53.250;10.410;2023-04-25T02:30:15;9.20;99.90
13389;DHT22;6764;53.250;10.410;2023-04-25T02:32:41;9.20;99.90
13389;DHT22;6764;53.250;10.410;2023-04-25T02:35:07;9.00;99.90
13389;DHT22;6764;53.250;10.410;2023-04-25T02:37:34;8.90;99.90
13389;DHT22;6764;53.250;10.410;2023-04-25T02:40:00;9.00;99.90
13389;DHT22;6764;53.250;10.410;2023-04-25T02:42:27;9.00;99.90
13389;DHT22;6764;53.250;10.410;2023-04-25T02:44:53;8.90;99.90
13389;DHT22;6764;53.250;10.410;2023-04-25T02:47:19;9.00;99.90
13389;DHT22;6764;53.250;10.410;2023-04-25T02:49:44;9.00;99.90
13389;DHT22;6764;53.250;10.410;2023-04-25T02:52:11;9.00;99.90
13389;DHT22;6764;53.250;10.410;2023-04-25T02:54:36;8.90;99.90
13389;DHT22;6764;53.250;10.410;2023-04-25T02:57:02;8.90;99.90
13389;DHT22;6764;53.250;10.410;2023-04-25T02:59:28;9.00;99.90
13389;DHT22;6764;53.250;10.410;2023-04-25T03:01:53;9.00;99.90
13389;DHT22;6764;53.250;10.410;2023-04-25T03:04:19;8.90;99.90
13389;DHT22;6764;53.250;10.410;2023-04-25T03:06:46;8.80;99.90
13389;DHT22;6764;53.250;10.410;2023-04-25T03:09:12;8.90;99.90
13389;DHT22;6764;53.250;10.410;2023-04-25T03:11:38;8.80;99.90
13389;DHT22;6764;53.250;10.410;2023-04-25T03:14:04;8.80;99.90
13389;DHT22;6764;53.250;10.410;2023-04-25T03:16:30;8.80;99.90
13389;DHT22;6764;53.250;10.410;2023-04-25T03:18:56;8.70;99.90
13389;DHT22;6764;53.250;10.410;2023-04-25T03:21:22;8.70;99.90
13389;DHT22;6764;53.250;10.410;2023-04-25T03:23:48;8.70;99.90
13389;DHT22;6764;53.250;10.410;2023-04-25T03:26:13;8.60;99.90
13389;DHT22;6764;53.250;10.410;2023-04-25T03:28:39;8.60;99.90
13389;DHT22;6764;53.250;10.410;2023-04-25T03:31:05;8.50;99.90
13389;DHT22;6764;53.250;10.410;2023-04-25T03:33:31;8.50;99.90
13389;DHT22;6764;53.250;10.410;2023-04-25T03:35:57;8.40;99.90
13389;DHT22;6764;53.250;10.410;2023-04-25T03:38:22;8.40;99.90
13389;DHT22;6764;53.250;10.410;2023-04-25T03:40:49;8.30;99.90
13389;DHT22;6764;53.250;10.410;2023-04-25T03:43:16;8.30;99.90
13389;DHT22;6764;53.250;10.410;2023-04-25T03:45:41;8.20;99.90
13389;DHT22;6764;53.250;10.410;2023-04-25T03:48:07;8.30;99.90
13389;DHT22;6764;53.250;10.410;2023-04-25T03:50:32;8.20;99.90
13389;DHT22;6764;53.250;10.410;2023-04-25T03:52:58;8.20;99.90
13389;DHT22;6764;53.250;10.410;2023-04-25T03:55:24;8.10;99.90
13389;DHT22;6764;53.250;10.410;2023-04-25T03:57:49;8.10;99.90
13389;DHT22;6764;53.250;10.410;2023-04-25T04:00:15;8.10;99.90
13389;DHT22;6764;53.250;10.410;2023-04-25T04:02:41;8.10;99.90
13389;DHT22;6764;53.250;10.410;2023-04-25T04:05:07;8.10;99.90
13389;DHT22;6764;53.250;10.410;2023-04-25T04:07:32;8.10;99.90
13389;DHT22;6764;53.250;10.410;2023-04-25T04:09:59;8.00;99.90
13389;DHT22;6764;53.250;10.410;2023-04-25T04:12:24;7.90;99.90
13389;DHT22;6764;53.250;10.410;2023-04-25T04:14:50;7.80;99.90
13389;DHT22;6764;53.250;10.410;2023-04-25T04:17:15;7.80;99.90
13389;DHT22;6764;53.250;10.410;2023-04-25T04:19:41;7.80;99.90
13389;DHT22;6764;53.250;10.410;2023-04-25T04:22:07;7.80;99.90
13389;DHT22;6764;53.250;10.410;2023-04-25T04:24:32;7.70;99.90
13389;DHT22;6764;53.250;10.410;2023-04-25T04:26:58;7.70;99.90
13389;DHT22;6764;53.250;10.410;2023-04-25T04:29:24;7.70;99.90
13389;DHT22;6764;53.250;10.410;2023-04-25T04:31:51;7.60;99.90
13389;DHT22;6764;53.250;10.410;2023-04-25T04:34:18;7.60;99.90
13389;DHT22;6764;53.250;10.410;2023-04-25T04:36:44;7.60;99.90
13389;DHT22;6764;53.250;10.410;2023-04-25T04:39:11;7.50;99.90
13389;DHT22;6764;53.250;10.410;2023-04-25T04:41:37;7.60;99.90
13389;DHT22;6764;53.250;10.410;2023-04-25T04:44:03;7.60;99.90
13389;DHT22;6764;53.250;10.410;2023-04-25T04:46:29;7.50;99.90
13389;DHT22;6764;53.250;10.410;2023-04-25T04:48:56;7.50;99.90
13389;DHT22;6764;53.250;10.410;2023-04-25T04:51:22;7.50;99.90
13389;DHT22;6764;53.250;10.410;2023-04-25T04:53:47;7.50;99.90
13389;DHT22;6764;53.250;10.410;2023-04-25T04:56:13;7.50;99.90
13389;DHT22;6764;53.250;10.410;2023-04-25T04:58:38;7.60;99.90
13389;DHT22;6764;53.250;10.410;2023-04-25T05:01:04;7.60;99.90
13389;DHT22;6764;53.250;10.410;2023-04-25T05:03:30;7.60;99.90
13389;DHT22;6764;53.250;10.410;2023-04-25T05:05:55;7.60;99.90
13389;DHT22;6764;53.250;10.410;2023-04-25T05:08:21;7.70;99.90
13389;DHT22;6764;53.250;10.410;2023-04-25T05:10:47;7.60;99.90
13389;DHT22;6764;53.250;10.410;2023-04-25T05:13:12;7.60;99.90
13389;DHT22;6764;53.250;10.410;2023-04-25T05:15:38;7.60;99.90
13389;DHT22;6764;53.250;10.410;2023-04-25T05:18:03;7.70;99.90
13389;DHT22;6764;53.250;10.410;2023-04-25T05:20:29;7.80;99.90
13389;DHT22;6764;53.250;10.410;2023-04-25T05:22:55;7.90;99.90
13389;DHT22;6764;53.250;10.410;2023-04-25T05:25:20;8.00;99.90
13389;DHT22;6764;53.250;10.410;2023-04-25T05:27:46;8.10;99.90
13389;DHT22;6764;53.250;10.410;2023-04-25T05:30:12;8.20;99.90
13389;DHT22;6764;53.250;10.410;2023-04-25T05:32:37;8.40;99.90
13389;DHT22;6764;53.250;10.410;2023-04-25T05:35:03;8.50;99.90
13389;DHT22;6764;53.250;10.410;2023-04-25T05:37:29;8.40;99.90
13389;DHT22;6764;53.250;10.410;2023-04-25T05:39:56;8.40;99.90
13389;DHT22;6764;53.250;10.410;2023-04-25T05:42:22;8.40;99.90
13389;DHT22;6764;53.250;10.410;2023-04-25T05:44:47;8.40;99.90
13389;DHT22;6764;53.250;10.410;2023-04-25T05:47:13;8.50;99.90
13389;DHT22;6764;53.250;10.410;2023-04-25T05:49:38;8.60;99.90
13389;DHT22;6764;53.250;10.410;2023-04-25T05:52:04;8.60;99.90
13389;DHT22;6764;53.250;10.410;2023-04-25T05:54:31;8.70;99.90
13389;DHT22;6764;53.250;10.410;2023-04-25T05:56:57;8.90;99.90
13389;DHT22;6764;53.250;10.410;2023-04-25T05:59:23;9.00;99.90
13389;DHT22;6764;53.250;10.410;2023-04-25T06:01:48;9.00;99.90
13389;DHT22;6764;53.250;10.410;2023-04-25T06:04:14;9.10;99.90
13389;DHT22;6764;53.250;10.410;2023-04-25T06:06:39;9.20;99.90
13389;DHT22;6764;53.250;10.410;2023-04-25T06:09:05;9.20;99.90
13389;DHT22;6764;53.250;10.410;2023-04-25T06:11:30;9.20;99.90
13389;DHT22;6764;53.250;10.410;2023-04-25T06:13:56;9.10;99.90
13389;DHT22;6764;53.250;10.410;2023-04-25T06:16:21;9.10;99.90
13389;DHT22;6764;53.250;10.410;2023-04-25T06:18:47;9.10;99.90
13389;DHT22;6764;53.250;10.410;2023-04-25T06:21:13;9.10;99.90
13389;DHT22;6764;53.250;10.410;2023-04-25T06:23:38;9.10;99.90
13389;DHT22;6764;53.250;10.410;2023-04-25T06:26:04;9.10;99.90
13389;DHT22;6764;53.250;10.410;2023-04-25T06:28:29;9.10;99.90
13389;DHT22;6764;53.250;10.410;2023-04-25T06:30:55;9.20;99.90
13389;DHT22;6764;53.250;10.410;2023-04-25T06:33:20;9.20;99.90
13389;DHT22;6764;53.250;10.410;2023-04-25T06:35:47;9.30;99.90
13389;DHT22;6764;53.250;10.410;2023-04-25T06:38:13;9.30;99.90
13389;DHT22;6764;53.250;10.410;2023-04-25T06:40:38;9.40;99.90
13389;DHT22;6764;53.250;10.410;2023-04-25T06:43:04;9.20;99.90
13389;DHT22;6764;53.250;10.410;2023-04-25T06:45:30;9.20;99.90
13389;DHT22;6764;53.250;10.410;2023-04-25T06:47:55;9.30;99.90
13389;DHT22;6764;53.250;10.410;2023-04-25T06:50:21;9.40;99.90
13389;DHT22;6764;53.250;10.410;2023-04-25T06:52:47;9.40;99.90
13389;DHT22;6764;53.250;10.410;2023-04-25T06:55:12;9.50;99.90
13389;DHT22;6764;53.250;10.410;2023-04-25T06:57:38;9.70;99.90
13389;DHT22;6764;53.250;10.410;2023-04-25T07:00:05;9.90;99.90
13389;DHT22;6764;53.250;10.410;2023-04-25T07:02:34;10.00;99.90
13389;DHT22;6764;53.250;10.410;2023-04-25T07:04:59;10.10;99.90
13389;DHT22;6764;53.250;10.410;2023-04-25T07:07:26;10.20;99.90
13389;DHT22;6764;53.250;10.410;2023-04-25T07:09:52;10.30;99.90
13389;DHT22;6764;53.250;10.410;2023-04-25T07:12:17;10.40;99.90
13389;DHT22;6764;53.250;10.410;2023-04-25T07:14:43;10.40;99.90
13389;DHT22;6764;53.250;10.410;2023-04-25T07:17:08;10.40;99.90
13389;DHT22;6764;53.250;10.410;2023-04-25T07:19:34;10.40;99.90
13389;DHT22;6764;53.250;10.410;2023-04-25T07:22:00;10.40;99.90
13389;DHT22;6764;53.250;10.410;2023-04-25T07:24:25;10.30;99.90
13389;DHT22;6764;53.250;10.410;2023-04-25T07:26:51;10.20;99.90
13389;DHT22;6764;53.250;10.410;2023-04-25T07:29:17;10.10;99.90
13389;DHT22;6764;53.250;10.410;2023-04-25T07:31:42;10.00;99.90
13389;DHT22;6764;53.250;10.410;2023-04-25T07:34:08;9.80;99.90
13389;DHT22;6764;53.250;10.410;2023-04-25T07:36:33;9.90;99.90
13389;DHT22;6764;53.250;10.410;2023-04-25T07:38:59;9.90;99.90
13389;DHT22;6764;53.250;10.410;2023-04-25T07:41:24;9.80;99.90
13389;DHT22;6764;53.250;10.410;2023-04-25T07:43:50;9.90;99.90
13389;DHT22;6764;53.250;10.410;2023-04-25T07:46:16;10.00;99.90
13389;DHT22;6764;53.250;10.410;2023-04-25T07:48:41;10.40;99.90
13389;DHT22;6764;53.250;10.410;2023-04-25T07:51:07;10.90;99.90
13389;DHT22;6764;53.250;10.410;2023-04-25T07:53:32;11.40;99.90
13389;DHT22;6764;53.250;10.410;2023-04-25T07:56:00;11.60;99.90
13389;DHT22;6764;53.250;10.410;2023-04-25T07:58:25;11.50;99.90
13389;DHT22;6764;53.250;10.410;2023-04-25T08:00:51;11.50;99.90
13389;DHT22;6764;53.250;10.410;2023-04-25T08:03:16;11.50;99.90
13389;DHT22;6764;53.250;10.410;2023-04-25T08:05:42;11.10;99.90
13389;DHT22;6764;53.250;10.410;2023-04-25T08:08:08;11.00;99.90
13389;DHT22;6764;53.250;10.410;2023-04-25T08:10:34;10.90;99.90
13389;DHT22;6764;53.250;10.410;2023-04-25T08:12:59;11.00;99.90
13389;DHT22;6764;53.250;10.410;2023-04-25T08:15:25;11.30;99.90
13389;DHT22;6764;53.250;10.410;2023-04-25T08:17:51;11.50;99.90
13389;DHT22;6764;53.250;10.410;2023-04-25T08:20:17;11.70;99.90
13389;DHT22;6764;53.250;10.410;2023-04-25T08:22:43;11.90;99.90
13389;DHT22;6764;53.250;10.410;2023-04-25T08:25:08;11.90;99.90
13389;DHT22;6764;53.250;10.410;2023-04-25T08:27:34;11.90;99.90
13389;DHT22;6764;53.250;10.410;2023-04-25T08:30:00;11.90;99.90
13389;DHT22;6764;53.250;10.410;2023-04-25T08:32:27;12.00;99.90
13389;DHT22;6764;53.250;10.410;2023-04-25T08:34:52;12.10;99.90
13389;DHT22;6764;53.250;10.410;2023-04-25T08:37:20;12.20;99.90
13389;DHT22;6764;53.250;10.410;2023-04-25T08:39:46;12.20;99.90
13389;DHT22;6764;53.250;10.410;2023-04-25T08:42:15;12.40;99.90
13389;DHT22;6764;53.250;10.410;2023-04-25T08:44:41;12.60;99.90
13389;DHT22;6764;53.250;10.410;2023-04-25T08:47:07;12.20;99.90
13389;DHT22;6764;53.250;10.410;2023-04-25T08:49:33;12.30;99.90
13389;DHT22;6764;53.250;10.410;2023-04-25T08:52:04;12.70;99.90
13389;DHT22;6764;53.250;10.410;2023-04-25T08:54:35;13.40;99.90
13389;DHT22;6764;53.250;10.410;2023-04-25T08:57:02;13.50;99.90
13389;DHT22;6764;53.250;10.410;2023-04-25T08:59:29;13.40;99.80
13389;DHT22;6764;53.250;10.410;2023-04-25T09:01:55;13.20;98.80
13389;DHT22;6764;53.250;10.410;2023-04-25T09:04:21;13.50;98.20
13389;DHT22;6764;53.250;10.410;2023-04-25T09:06:47;13.90;97.10
13389;DHT22;6764;53.250;10.410;2023-04-25T09:09:13;15.00;95.60
13389;DHT22;6764;53.250;10.410;2023-04-25T09:11:39;15.80;94.70
13389;DHT22;6764;53.250;10.410;2023-04-25T09:14:13;15.80;93.10
13389;DHT22;6764;53.250;10.410;2023-04-25T09:17:03;15.40;92.50
13389;DHT22;6764;53.250;10.410;2023-04-25T09:19:39;14.80;93.10
13389;DHT22;6764;53.250;10.410;2023-04-25T09:22:06;14.50;93.60
13389;DHT22;6764;53.250;10.410;2023-04-25T09:24:39;14.20;94.40
13389;DHT22;6764;53.250;10.410;2023-04-25T09:27:08;13.90;94.90
13389;DHT22;6764;53.250;10.410;2023-04-25T09:29:36;13.80;95.30
13389;DHT22;6764;53.250;10.410;2023-04-25T09:32:19;13.30;95.70
13389;DHT22;6764;53.250;10.410;2023-04-25T09:34:51;12.90;96.50
13389;DHT22;6764;53.250;10.410;2023-04-25T09:37:21;12.50;96.60
13389;DHT22;6764;53.250;10.410;2023-04-25T09:39:48;12.30;97.40
13389;DHT22;6764;53.250;10.410;2023-04-25T09:42:15;11.80;98.00
13389;DHT22;6764;53.250;10.410;2023-04-25T09:44:43;11.60;98.80
13389;DHT22;6764;53.250;10.410;2023-04-25T09:47:14;11.90;98.70
13389;DHT22;6764;53.250;10.410;2023-04-25T09:49:42;12.40;97.10
13389;DHT22;6764;53.250;10.410;2023-04-25T09:52:08;12.90;97.00
13389;DHT22;6764;53.250;10.410;2023-04-25T09:54:34;13.00;96.70
13389;DHT22;6764;53.250;10.410;2023-04-25T09:57:15;13.10;96.70
13389;DHT22;6764;53.250;10.410;2023-04-25T09:59:54;13.10;96.30
13389;DHT22;6764;53.250;10.410;2023-04-25T10:02:22;12.60;97.40
13389;DHT22;6764;53.250;10.410;2023-04-25T10:04:52;12.20;99.60
13389;DHT22;6764;53.250;10.410;2023-04-25T10:07:24;11.80;99.90
13389;DHT22;6764;53.250;10.410;2023-04-25T10:10:03;11.30;99.90
13389;DHT22;6764;53.250;10.410;2023-04-25T10:12:30;10.90;99.90
13389;DHT22;6764;53.250;10.410;2023-04-25T10:14:58;10.60;99.90
13389;DHT22;6764;53.250;10.410;2023-04-25T10:17:24;10.50;99.90
13389;DHT22;6764;53.250;10.410;2023-04-25T10:19:51;10.30;99.90
13389;DHT22;6764;53.250;10.410;2023-04-25T10:22:31;10.10;99.90
13389;DHT22;6764;53.250;10.410;2023-04-25T10:24:58;10.20;99.90
13389;DHT22;6764;53.250;10.410;2023-04-25T10:27:26;10.40;99.90
13389;DHT22;6764;53.250;10.410;2023-04-25T10:30:08;11.20;99.90
13389;DHT22;6764;53.250;10.410;2023-04-25T10:32:36;12.10;99.90
13389;DHT22;6764;53.250;10.410;2023-04-25T10:35:15;12.70;99.90
13389;DHT22;6764;53.250;10.410;2023-04-25T10:38:00;12.90;99.60
13389;DHT22;6764;53.250;10.410;2023-04-25T10:40:28;12.60;99.90
13389;DHT22;6764;53.250;10.410;2023-04-25T10:42:54;12.30;99.90
13389;DHT22;6764;53.250;10.410;2023-04-25T10:45:21;11.40;99.90
13389;DHT22;6764;53.250;10.410;2023-04-25T10:47:47;11.30;99.90
13389;DHT22;6764;53.250;10.410;2023-04-25T10:50:14;11.30;99.90
13389;DHT22;6764;53.250;10.410;2023-04-25T10:52:41;11.90;99.90
13389;DHT22;6764;53.250;10.410;2023-04-25T10:55:07;12.40;99.90
13389;DHT22;6764;53.250;10.410;2023-04-25T10:57:42;12.50;99.90
13389;DHT22;6764;53.250;10.410;2023-04-25T11:02:41;15.00;97.50
13389;DHT22;6764;53.250;10.410;2023-04-25T11:05:15;15.90;95.20
13389;DHT22;6764;53.250;10.410;2023-04-25T11:07:52;16.00;94.00
13389;DHT22;6764;53.250;10.410;2023-04-25T11:10:20;15.70;91.90
13389;DHT22;6764;53.250;10.410;2023-04-25T11:12:46;15.60;92.20
13389;DHT22;6764;53.250;10.410;2023-04-25T11:15:12;16.00;91.40
13389;DHT22;6764;53.250;10.410;2023-04-25T11:17:39;16.60;91.10
13389;DHT22;6764;53.250;10.410;2023-04-25T11:20:07;17.30;89.80
13389;DHT22;6764;53.250;10.410;2023-04-25T11:22:37;17.60;89.40
13389;DHT22;6764;53.250;10.410;2023-04-25T11:25:11;17.10;84.70
13389;DHT22;6764;53.250;10.410;2023-04-25T11:27:59;16.90;86.40
13389;DHT22;6764;53.250;10.410;2023-04-25T11:30:27;16.20;88.00
13389;DHT22;6764;53.250;10.410;2023-04-25T11:32:54;15.20;90.50
13389;DHT22;6764;53.250;10.410;2023-04-25T11:35:20;14.40;91.70
13389;DHT22;6764;53.250;10.410;2023-04-25T11:37:48;14.00;92.60
13389;DHT22;6764;53.250;10.410;2023-04-25T11:40:15;13.80;94.20
13389;DHT22;6764;53.250;10.410;2023-04-25T11:42:45;13.10;99.20
13389;DHT22;6764;53.250;10.410;2023-04-25T11:45:11;12.50;99.90
13389;DHT22;6764;53.250;10.410;2023-04-25T11:47:37;11.70;99.90
13389;DHT22;6764;53.250;10.410;2023-04-25T11:50:04;11.30;99.90
13389;DHT22;6764;53.250;10.410;2023-04-25T11:52:41;11.20;99.90
13389;DHT22;6764;53.250;10.410;2023-04-25T11:55:16;11.30;99.90
13389;DHT22;6764;53.250;10.410;2023-04-25T11:57:43;11.60;99.90
13389;DHT22;6764;53.250;10.410;2023-04-25T12:00:18;11.80;99.90
13389;DHT22;6764;53.250;10.410;2023-04-25T12:02:50;11.50;99.90
13389;DHT22;6764;53.250;10.410;2023-04-25T12:05:16;11.30;99.90
13389;DHT22;6764;53.250;10.410;2023-04-25T12:07:42;11.40;99.90
13389;DHT22;6764;53.250;10.410;2023-04-25T12:10:13;11.20;99.90
13389;DHT22;6764;53.250;10.410;2023-04-25T12:12:42;11.50;99.90
13389;DHT22;6764;53.250;10.410;2023-04-25T12:15:16;11.70;99.90
13389;DHT22;6764;53.250;10.410;2023-04-25T12:17:48;11.90;99.90
13389;DHT22;6764;53.250;10.410;2023-04-25T12:20:18;11.80;99.90
13389;DHT22;6764;53.250;10.410;2023-04-25T12:22:46;11.80;99.90
13389;DHT22;6764;53.250;10.410;2023-04-25T12:25:33;12.10;99.90
13389;DHT22;6764;53.250;10.410;2023-04-25T12:28:18;12.30;99.50
13389;DHT22;6764;53.250;10.410;2023-04-25T12:31:04;12.40;99.90
13389;DHT22;6764;53.250;10.410;2023-04-25T12:33:34;12.30;99.90
13389;DHT22;6764;53.250;10.410;2023-04-25T12:36:01;12.30;99.30
13389;DHT22;6764;53.250;10.410;2023-04-25T12:38:36;12.50;98.30
13389;DHT22;6764;53.250;10.410;2023-04-25T12:41:02;12.70;98.20
13389;DHT22;6764;53.250;10.410;2023-04-25T12:43:28;12.90;97.60
13389;DHT22;6764;53.250;10.410;2023-04-25T12:45:55;13.00;96.50
13389;DHT22;6764;53.250;10.410;2023-04-25T12:48:21;13.10;96.50
13389;DHT22;6764;53.250;10.410;2023-04-25T12:50:48;13.10;97.20
13389;DHT22;6764;53.250;10.410;2023-04-25T12:53:21;13.10;96.80
13389;DHT22;6764;53.250;10.410;2023-04-25T12:55:47;13.10;97.70
13389;DHT22;6764;53.250;10.410;2023-04-25T12:58:13;13.00;97.10
13389;DHT22;6764;53.250;10.410;2023-04-25T13:00:39;12.70;97.20
13389;DHT22;6764;53.250;10.410;2023-04-25T13:03:05;12.30;98.80
13389;DHT22;6764;53.250;10.410;2023-04-25T13:05:30;12.10;99.60
13389;DHT22;6764;53.250;10.410;2023-04-25T13:07:56;12.10;99.90
13389;DHT22;6764;53.250;10.410;2023-04-25T13:10:22;12.20;99.40
13389;DHT22;6764;53.250;10.410;2023-04-25T13:12:48;12.50;99.20
13389;DHT22;6764;53.250;10.410;2023-04-25T13:15:14;12.70;98.50
13389;DHT22;6764;53.250;10.410;2023-04-25T13:17:41;12.70;97.90
13389;DHT22;6764;53.250;10.410;2023-04-25T13:20:07;12.70;98.00
13389;DHT22;6764;53.250;10.410;2023-04-25T13:22:38;12.70;97.80
13389;DHT22;6764;53.250;10.410;2023-04-25T13:25:05;12.50;97.70
13389;DHT22;6764;53.250;10.410;2023-04-25T13:27:35;12.60;97.70
13389;DHT22;6764;53.250;10.410;2023-04-25T13:30:03;12.30;98.20
13389;DHT22;6764;53.250;10.410;2023-04-25T13:32:33;12.20;97.90
13389;DHT22;6764;53.250;10.410;2023-04-25T13:34:59;12.10;97.30
13389;DHT22;6764;53.250;10.410;2023-04-25T13:37:26;12.00;96.10
13389;DHT22;6764;53.250;10.410;2023-04-25T13:39:51;12.00;94.50
13389;DHT22;6764;53.250;10.410;2023-04-25T13:42:17;12.10;93.80
13389;DHT22;6764;53.250;10.410;2023-04-25T13:44:43;12.00;94.40
13389;DHT22;6764;53.250;10.410;2023-04-25T13:47:08;12.00;94.50
13389;DHT22;6764;53.250;10.410;2023-04-25T13:49:34;11.90;94.70
13389;DHT22;6764;53.250;10.410;2023-04-25T13:52:00;12.00;94.20
13389;DHT22;6764;53.250;10.410;2023-04-25T13:54:25;12.10;93.90
13389;DHT22;6764;53.250;10.410;2023-04-25T13:56:51;12.20;94.00
13389;DHT22;6764;53.250;10.410;2023-04-25T13:59:17;12.20;93.70
13389;DHT22;6764;53.250;10.410;2023-04-25T14:01:43;12.20;93.50
13389;DHT22;6764;53.250;10.410;2023-04-25T14:04:08;12.00;93.50
13389;DHT22;6764;53.250;10.410;2023-04-25T14:06:34;12.00;94.00
13389;DHT22;6764;53.250;10.410;2023-04-25T14:09:00;12.10;94.40
13389;DHT22;6764;53.250;10.410;2023-04-25T14:11:26;11.90;94.40
13389;DHT22;6764;53.250;10.410;2023-04-25T14:13:52;11.80;94.70
13389;DHT22;6764;53.250;10.410;2023-04-25T14:16:17;11.90;95.00
13389;DHT22;6764;53.250;10.410;2023-04-25T14:18:43;11.80;95.50
13389;DHT22;6764;53.250;10.410;2023-04-25T14:21:09;11.80;95.20
13389;DHT22;6764;53.250;10.410;2023-04-25T14:23:35;11.90;95.60
13389;DHT22;6764;53.250;10.410;2023-04-25T14:26:01;11.90;97.70
13389;DHT22;6764;53.250;10.410;2023-04-25T14:28:27;11.90;99.90
13389;DHT22;6764;53.250;10.410;2023-04-25T14:30:52;11.80;99.90
13389;DHT22;6764;53.250;10.410;2023-04-25T14:33:18;11.60;99.90
13389;DHT22;6764;53.250;10.410;2023-04-25T14:35:43;11.40;99.90
13389;DHT22;6764;53.250;10.410;2023-04-25T14:38:09;11.40;99.90
13389;DHT22;6764;53.250;10.410;2023-04-25T14:40:35;11.20;99.90
13389;DHT22;6764;53.250;10.410;2023-04-25T14:43:01;11.30;99.90
13389;DHT22;6764;53.250;10.410;2023-04-25T14:45:26;11.30;99.90
13389;DHT22;6764;53.250;10.410;2023-04-25T14:47:52;11.40;99.90
13389;DHT22;6764;53.250;10.410;2023-04-25T14:50:18;11.50;99.90
13389;DHT22;6764;53.250;10.410;2023-04-25T14:52:43;11.50;99.90
13389;DHT22;6764;53.250;10.410;2023-04-25T14:55:10;11.50;99.90
13389;DHT22;6764;53.250;10.410;2023-04-25T14:57:36;11.50;99.90
13389;DHT22;6764;53.250;10.410;2023-04-25T15:00:02;11.50;99.90
13389;DHT22;6764;53.250;10.410;2023-04-25T15:02:30;11.40;99.90
13389;DHT22;6764;53.250;10.410;2023-04-25T15:04:56;11.60;99.90
13389;DHT22;6764;53.250;10.410;2023-04-25T15:07:22;11.50;99.90
13389;DHT22;6764;53.250;10.410;2023-04-25T15:09:48;11.50;99.90
13389;DHT22;6764;53.250;10.410;2023-04-25T15:12:13;11.40;99.90
13389;DHT22;6764;53.250;10.410;2023-04-25T15:14:39;11.40;99.90
13389;DHT22;6764;53.250;10.410;2023-04-25T15:17:05;11.20;99.90
13389;DHT22;6764;53.250;10.410;2023-04-25T15:19:31;11.30;99.90
13389;DHT22;6764;53.250;10.410;2023-04-25T15:21:57;11.40;99.90
13389;DHT22;6764;53.250;10.410;2023-04-25T15:24:25;11.50;99.90
13389;DHT22;6764;53.250;10.410;2023-04-25T15:26:51;11.40;99.90
13389;DHT22;6764;53.250;10.410;2023-04-25T15:29:17;11.30;99.70
13389;DHT22;6764;53.250;10.410;2023-04-25T15:31:43;11.30;99.50
13389;DHT22;6764;53.250;10.410;2023-04-25T15:34:09;11.20;99.40
13389;DHT22;6764;53.250;10.410;2023-04-25T15:36:34;11.10;99.90
13389;DHT22;6764;53.250;10.410;2023-04-25T15:39:00;11.20;99.90
13389;DHT22;6764;53.250;10.410;2023-04-25T15:41:26;11.10;99.90
13389;DHT22;6764;53.250;10.410;2023-04-25T15:43:52;11.00;99.90
13389;DHT22;6764;53.250;10.410;2023-04-25T15:46:19;10.90;99.90